Time;durP1;ratioP1;P1;durP2;ratioP2;P2;SDS_P1;SDS_P2;PMS_P1;PMS_P2;Temp;Humidity;BMP_temperature;BMP_pressure;BME280_temperature;BME280_humidity;BME280_pressure;Samples;Min_cycle;Max_cycle;Signal;HPM_P1;HPM_P2
2021/08/05 00:01:58;;;;;;;1.42;0.60;;;17.00;78.70;;;;;;4977316;28;20125;-64
2021/08/05 00:04:24;;;;;;;2.38;0.50;;;17.00;78.90;;;;;;4984280;28;20042;-64
2021/08/05 00:06:49;;;;;;;3.63;0.65;;;17.00;79.10;;;;;;4981934;28;20529;-64
2021/08/05 00:09:15;;;;;;;0.65;0.40;;;17.00;79.40;;;;;;4977194;28;20101;-63
2021/08/05 00:11:41;;;;;;;8.07;0.82;;;17.00;79.60;;;;;;4971340;28;20048;-64
2021/08/05 00:14:07;;;;;;;3.42;0.50;;;17.00;79.60;;;;;;4978111;28;20038;-64
2021/08/05 00:16:32;;;;;;;2.72;0.70;;;17.00;79.70;;;;;;4981831;28;20107;-63
2021/08/05 00:18:58;;;;;;;1.42;0.50;;;17.00;79.80;;;;;;4981609;28;21077;-64
2021/08/05 00:21:24;;;;;;;0.60;0.50;;;17.00;80.00;;;;;;4977750;28;20092;-64
2021/08/05 00:23:49;;;;;;;1.92;0.50;;;17.00;80.00;;;;;;4976385;28;20035;-64
2021/08/05 00:26:15;;;;;;;2.03;0.50;;;17.00;80.10;;;;;;4976078;28;20626;-63
2021/08/05 00:28:42;;;;;;;2.05;0.50;;;17.00;80.10;;;;;;4972640;28;20478;-64
2021/08/05 00:31:08;;;;;;;2.00;0.68;;;17.00;80.10;;;;;;4978101;28;20392;-64
2021/08/05 00:33:34;;;;;;;2.22;0.50;;;17.00;80.00;;;;;;4978504;28;20042;-64
2021/08/05 00:36:00;;;;;;;3.30;0.50;;;17.00;80.00;;;;;;4979445;28;20085;-64
2021/08/05 00:38:25;;;;;;;0.70;0.50;;;17.00;80.00;;;;;;4980004;28;20038;-64
2021/08/05 00:40:54;;;;;;;2.22;0.70;;;17.00;80.00;;;;;;4979733;28;20520;-64
2021/08/05 00:43:20;;;;;;;1.63;0.60;;;17.00;79.80;;;;;;4988871;28;20042;-64
2021/08/05 00:45:46;;;;;;;1.15;0.50;;;17.00;79.60;;;;;;4980232;28;20030;-64
2021/08/05 00:48:12;;;;;;;1.02;0.60;;;17.00;79.50;;;;;;4980220;28;20625;-64
2021/08/05 00:50:38;;;;;;;2.83;0.57;;;17.00;79.60;;;;;;4992838;28;20030;-64
2021/08/05 00:53:04;;;;;;;0.88;0.65;;;17.00;79.60;;;;;;4975240;28;20033;-64
2021/08/05 00:55:30;;;;;;;2.00;0.70;;;17.00;79.70;;;;;;4975992;28;20530;-64
2021/08/05 00:57:56;;;;;;;5.35;0.68;;;17.00;79.80;;;;;;4978127;28;20078;-64
2021/08/05 01:00:23;;;;;;;0.70;0.70;;;16.90;79.90;;;;;;4992349;28;20037;-63
2021/08/05 01:02:56;;;;;;;3.50;0.60;;;16.90;80.00;;;;;;4973343;28;20036;-63
2021/08/05 01:05:24;;;;;;;3.58;0.75;;;16.90;80.00;;;;;;4991212;28;20081;-64
2021/08/05 01:07:57;;;;;;;0.90;0.50;;;16.90;79.80;;;;;;4972861;28;20030;-64
2021/08/05 01:10:27;;;;;;;1.55;0.55;;;16.90;80.10;;;;;;4973766;28;21544;-64
2021/08/05 01:13:07;;;;;;;0.55;0.55;;;16.90;80.10;;;;;;4975887;28;20047;-63
2021/08/05 01:15:33;;;;;;;1.85;0.60;;;16.90;80.70;;;;;;4979295;28;20030;-64
2021/08/05 01:18:06;;;;;;;1.52;0.55;;;16.90;80.20;;;;;;4982107;28;20545;-64
2021/08/05 01:20:33;;;;;;;0.60;0.60;;;17.00;80.50;;;;;;4972016;28;20034;-64
2021/08/05 01:23:07;;;;;;;0.80;0.70;;;17.00;80.30;;;;;;4980171;28;20812;-64
2021/08/05 01:25:52;;;;;;;1.17;0.70;;;16.90;80.40;;;;;;4985542;28;20058;-63
2021/08/05 01:28:18;;;;;;;3.03;0.70;;;17.00;80.30;;;;;;4982027;28;20089;-64
2021/08/05 01:30:47;;;;;;;1.00;0.70;;;17.00;80.00;;;;;;4979325;28;20262;-64
2021/08/05 01:33:16;;;;;;;1.67;0.68;;;17.00;80.10;;;;;;4994579;28;20030;-63
2021/08/05 01:35:43;;;;;;;2.97;0.68;;;17.00;81.00;;;;;;4981743;28;20553;-64
2021/08/05 01:38:11;;;;;;;1.70;0.65;;;17.00;80.20;;;;;;4976465;28;20505;-64
2021/08/05 01:40:39;;;;;;;2.35;1.10;;;17.00;80.50;;;;;;4988650;28;20502;-64
2021/08/05 01:43:05;;;;;;;2.45;1.27;;;17.00;80.40;;;;;;4974832;28;20035;-64
2021/08/05 01:45:31;;;;;;;3.25;1.25;;;17.00;80.40;;;;;;4978131;28;20109;-64
2021/08/05 01:47:57;;;;;;;3.38;1.80;;;17.00;81.20;;;;;;4977665;28;20041;-64
2021/08/05 01:50:24;;;;;;;3.20;1.38;;;17.00;80.40;;;;;;4981931;28;20429;-64
2021/08/05 01:52:50;;;;;;;4.22;1.60;;;17.00;80.50;;;;;;4983746;28;20600;-64
2021/08/05 01:55:16;;;;;;;3.47;1.73;;;16.90;80.50;;;;;;4982608;28;20026;-64
2021/08/05 01:57:42;;;;;;;5.68;1.48;;;16.90;80.60;;;;;;4990367;28;20592;-64
2021/08/05 02:00:09;;;;;;;5.43;1.48;;;16.90;80.70;;;;;;4975350;28;20077;-64
2021/08/05 02:02:36;;;;;;;3.95;2.08;;;16.90;80.80;;;;;;4973520;28;20034;-64
2021/08/05 02:05:05;;;;;;;2.95;1.85;;;16.90;80.80;;;;;;4978995;28;20034;-64
2021/08/05 02:07:46;;;;;;;3.08;2.08;;;16.90;80.80;;;;;;4976325;28;20438;-64
2021/08/05 02:10:29;;;;;;;5.40;2.33;;;16.90;81.10;;;;;;4983903;28;20081;-64
2021/08/05 02:13:10;;;;;;;3.22;2.22;;;16.90;80.90;;;;;;4974852;28;20046;-64
2021/08/05 02:15:42;;;;;;;1.98;1.88;;;16.90;80.80;;;;;;4974079;28;20138;-64
2021/08/05 02:18:10;;;;;;;2.65;2.40;;;16.90;80.70;;;;;;4982163;28;20067;-64
2021/08/05 02:20:35;;;;;;;4.40;2.35;;;16.90;80.70;;;;;;4973138;28;20036;-63
2021/08/05 02:23:02;;;;;;;2.30;2.10;;;16.90;80.80;;;;;;4977166;28;20109;-64
2021/08/05 02:25:29;;;;;;;3.00;2.03;;;16.90;80.80;;;;;;4981951;28;20027;-64
2021/08/05 02:27:55;;;;;;;2.40;2.20;;;16.90;80.80;;;;;;4986765;28;20041;-63
2021/08/05 02:30:21;;;;;;;2.13;2.00;;;16.90;80.90;;;;;;4994756;28;21177;-64
2021/08/05 02:32:48;;;;;;;3.30;1.92;;;16.90;81.00;;;;;;4974188;28;20805;-64
2021/08/05 02:35:15;;;;;;;2.45;1.95;;;16.90;80.90;;;;;;4985398;28;20507;-64
2021/08/05 02:37:41;;;;;;;2.65;2.13;;;16.90;80.80;;;;;;4984156;28;20026;-64
2021/08/05 02:40:08;;;;;;;3.03;1.95;;;16.90;80.80;;;;;;4988896;28;20049;-64
2021/08/05 02:42:35;;;;;;;3.00;2.00;;;16.90;80.70;;;;;;4982315;28;20038;-64
2021/08/05 02:45:00;;;;;;;2.60;2.03;;;16.90;80.80;;;;;;4981137;28;20551;-64
2021/08/05 02:47:27;;;;;;;2.92;2.30;;;16.90;80.80;;;;;;4979697;28;20660;-64
2021/08/05 02:49:54;;;;;;;2.08;1.98;;;16.90;80.80;;;;;;4982442;28;20049;-64
2021/08/05 02:52:21;;;;;;;5.30;1.77;;;16.90;80.80;;;;;;4969186;28;20704;-64
2021/08/05 02:54:47;;;;;;;2.17;2.00;;;16.90;81.00;;;;;;4976165;28;20038;-64
2021/08/05 02:57:14;;;;;;;2.88;1.83;;;16.90;80.90;;;;;;4982540;28;20525;-64
2021/08/05 02:59:40;;;;;;;4.65;1.98;;;16.80;80.80;;;;;;4975542;28;20129;-64
2021/08/05 03:02:06;;;;;;;1.60;1.50;;;16.80;80.80;;;;;;4976975;28;20536;-64
2021/08/05 03:04:36;;;;;;;2.97;1.90;;;16.80;81.00;;;;;;4975038;28;20502;-64
2021/08/05 03:07:01;;;;;;;2.65;1.65;;;16.80;81.20;;;;;;4977944;28;20038;-64
2021/08/05 03:09:28;;;;;;;2.28;1.75;;;16.80;81.10;;;;;;4978262;28;20040;-64
2021/08/05 03:11:53;;;;;;;3.95;2.10;;;16.70;81.20;;;;;;4989103;28;20045;-63
2021/08/05 03:14:19;;;;;;;6.47;2.53;;;16.70;81.40;;;;;;4980201;28;20584;-65
2021/08/05 03:16:45;;;;;;;4.40;2.40;;;16.70;81.50;;;;;;4976687;28;20122;-64
2021/08/05 03:19:10;;;;;;;5.22;2.25;;;16.70;81.50;;;;;;4980748;28;20085;-64
2021/08/05 03:21:36;;;;;;;4.05;2.00;;;16.70;81.50;;;;;;4981958;28;20493;-63
2021/08/05 03:24:02;;;;;;;3.88;2.00;;;16.70;81.40;;;;;;4988411;28;20041;-64
2021/08/05 03:26:27;;;;;;;3.42;2.40;;;16.70;81.40;;;;;;4983261;28;20166;-64
2021/08/05 03:28:53;;;;;;;3.38;2.50;;;16.70;81.50;;;;;;4982383;28;20046;-64
2021/08/05 03:31:19;;;;;;;5.00;2.58;;;16.70;81.50;;;;;;4971570;28;20602;-64
2021/08/05 03:33:44;;;;;;;3.95;2.75;;;16.60;81.50;;;;;;4972929;28;20058;-64
2021/08/05 03:36:10;;;;;;;5.72;3.50;;;16.60;81.70;;;;;;4984905;28;20585;-64
2021/08/05 03:38:36;;;;;;;5.38;3.10;;;16.60;81.70;;;;;;4972116;28;20528;-64
2021/08/05 03:41:03;;;;;;;5.32;3.63;;;16.60;81.70;;;;;;4976699;28;20049;-64
2021/08/05 03:43:28;;;;;;;6.22;3.50;;;16.60;81.80;;;;;;4984349;28;20030;-64
2021/08/05 03:45:55;;;;;;;3.90;3.42;;;16.60;82.80;;;;;;4977490;28;20038;-64
2021/08/05 03:48:20;;;;;;;6.90;4.10;;;16.60;82.10;;;;;;4984151;28;20077;-64
2021/08/05 03:50:46;;;;;;;7.50;3.90;;;16.60;82.10;;;;;;4974293;28;20413;-64
2021/08/05 03:53:12;;;;;;;6.70;4.03;;;16.60;82.10;;;;;;4989991;28;20038;-63
2021/08/05 03:55:38;;;;;;;9.32;3.88;;;16.60;82.10;;;;;;4989927;28;20620;-63
2021/08/05 03:58:06;;;;;;;4.72;3.58;;;16.60;82.20;;;;;;4987819;28;20026;-65
2021/08/05 04:00:32;;;;;;;7.43;3.35;;;16.60;82.10;;;;;;4968564;28;20030;-63
2021/08/05 04:02:57;;;;;;;4.18;3.63;;;16.60;82.10;;;;;;4970519;28;20046;-64
2021/08/05 04:05:23;;;;;;;3.58;3.28;;;16.60;82.10;;;;;;4975881;28;20161;-64
2021/08/05 04:07:49;;;;;;;5.97;3.28;;;16.60;82.00;;;;;;4982657;28;20141;-64
2021/08/05 04:10:15;;;;;;;6.30;3.53;;;16.60;82.10;;;;;;4972711;28;20053;-65
2021/08/05 04:12:41;;;;;;;3.75;3.35;;;16.60;82.20;;;;;;4973913;28;20497;-64
2021/08/05 04:15:07;;;;;;;6.63;3.72;;;16.50;82.20;;;;;;4982200;28;20088;-64
2021/08/05 04:17:34;;;;;;;4.18;3.83;;;16.50;82.30;;;;;;4981028;28;20031;-63
2021/08/05 04:20:00;;;;;;;4.97;3.85;;;16.50;82.60;;;;;;4965059;28;20517;-64
2021/08/05 04:22:25;;;;;;;4.30;3.80;;;16.50;82.60;;;;;;4976442;28;20113;-64
2021/08/05 04:24:51;;;;;;;5.13;3.35;;;16.50;82.60;;;;;;4978744;28;20061;-64
2021/08/05 04:27:17;;;;;;;5.75;3.53;;;16.50;82.50;;;;;;4976174;28;20501;-64
2021/08/05 04:29:43;;;;;;;6.80;3.95;;;16.50;82.50;;;;;;4979811;28;20034;-64
2021/08/05 04:32:09;;;;;;;4.82;4.18;;;16.50;82.60;;;;;;4984529;28;20034;-64
2021/08/05 04:34:34;;;;;;;4.72;3.67;;;16.50;82.60;;;;;;4974316;28;20078;-64
2021/08/05 04:37:00;;;;;;;4.57;4.15;;;16.50;82.60;;;;;;4976792;28;20034;-64
2021/08/05 04:39:26;;;;;;;5.93;4.10;;;16.50;82.60;;;;;;4979362;28;20046;-64
2021/08/05 04:41:51;;;;;;;5.28;4.03;;;16.50;82.60;;;;;;4992246;28;20066;-64
2021/08/05 04:44:17;;;;;;;6.75;4.50;;;16.50;82.60;;;;;;4980728;28;20035;-64
2021/08/05 04:46:43;;;;;;;30.75;15.90;;;16.50;82.60;;;;;;4975890;28;20062;-64
2021/08/05 04:49:08;;;;;;;14.45;9.23;;;16.50;82.60;;;;;;4980656;28;20030;-64
2021/08/05 04:51:34;;;;;;;7.65;5.68;;;16.50;82.60;;;;;;4976882;28;20521;-64
2021/08/05 04:54:02;;;;;;;6.97;5.38;;;16.50;82.80;;;;;;4975171;28;20038;-64
2021/08/05 04:56:31;;;;;;;7.65;5.07;;;16.50;82.90;;;;;;4972588;28;20123;-64
2021/08/05 04:58:57;;;;;;;5.88;4.70;;;16.50;82.90;;;;;;4975787;28;20513;-64
2021/08/05 05:01:23;;;;;;;10.55;4.97;;;16.60;82.90;;;;;;4974699;28;20047;-64
2021/08/05 05:03:49;;;;;;;6.72;5.10;;;16.60;82.70;;;;;;4996682;28;20064;-64
2021/08/05 05:06:16;;;;;;;7.85;5.28;;;16.60;82.70;;;;;;4974585;28;20027;-64
2021/08/05 05:08:41;;;;;;;5.10;4.70;;;16.60;82.80;;;;;;4975184;28;20038;-64
2021/08/05 05:11:07;;;;;;;7.40;4.55;;;16.60;82.90;;;;;;4977277;28;20042;-64
2021/08/05 05:13:32;;;;;;;5.68;4.22;;;16.60;82.90;;;;;;4977786;28;20054;-63
2021/08/05 05:15:58;;;;;;;5.90;5.07;;;16.60;82.90;;;;;;4980860;28;20039;-64
2021/08/05 05:18:25;;;;;;;7.82;6.85;;;16.60;82.90;;;;;;4976574;28;20413;-64
2021/08/05 05:20:52;;;;;;;7.32;5.00;;;16.70;82.90;;;;;;4972494;28;20065;-64
2021/08/05 05:23:18;;;;;;;6.55;4.72;;;16.70;82.90;;;;;;4972746;28;20038;-64
2021/08/05 05:25:44;;;;;;;7.15;4.78;;;16.70;82.90;;;;;;4982813;28;20066;-63
2021/08/05 05:28:11;;;;;;;5.65;5.07;;;16.70;82.80;;;;;;4975369;28;20030;-63
2021/08/05 05:30:38;;;;;;;5.45;4.95;;;16.80;82.90;;;;;;4989198;28;20445;-64
2021/08/05 05:33:04;;;;;;;5.18;4.63;;;16.80;82.90;;;;;;4976406;28;20031;-64
2021/08/05 05:35:30;;;;;;;6.10;4.57;;;16.80;82.90;;;;;;4980134;28;20043;-64
2021/08/05 05:37:56;;;;;;;5.35;4.22;;;16.80;82.90;;;;;;4973676;28;20027;-64
2021/08/05 05:40:23;;;;;;;8.07;4.50;;;16.80;82.70;;;;;;4976078;28;20038;-65
2021/08/05 05:42:49;;;;;;;4.70;3.88;;;16.80;82.70;;;;;;4989670;28;20040;-64
2021/08/05 05:45:16;;;;;;;4.93;4.18;;;16.80;82.60;;;;;;4972548;28;20039;-65
2021/08/05 05:47:43;;;;;;;4.65;4.25;;;16.90;82.90;;;;;;4984493;28;20118;-64
2021/08/05 05:50:11;;;;;;;6.47;4.30;;;16.90;82.80;;;;;;4980315;28;20747;-65
2021/08/05 05:52:38;;;;;;;4.63;4.22;;;16.90;82.90;;;;;;4980502;28;20027;-64
2021/08/05 05:55:04;;;;;;;5.13;3.88;;;16.90;82.80;;;;;;4976817;28;20027;-65
2021/08/05 05:57:29;;;;;;;4.25;3.85;;;16.90;82.70;;;;;;4979146;28;20041;-64
2021/08/05 05:59:55;;;;;;;3.78;3.40;;;16.90;82.70;;;;;;4978395;28;20066;-64
2021/08/05 06:02:21;;;;;;;5.45;3.60;;;17.00;82.90;;;;;;4993770;28;20533;-64
2021/08/05 06:04:46;;;;;;;5.53;3.25;;;17.00;83.00;;;;;;4991079;28;20411;-65
2021/08/05 06:07:12;;;;;;;4.13;3.72;;;17.00;83.20;;;;;;4975493;28;20030;-64
2021/08/05 06:09:38;;;;;;;4.10;3.78;;;17.00;83.30;;;;;;4976312;28;20092;-65
2021/08/05 06:12:03;;;;;;;4.45;3.80;;;17.00;83.30;;;;;;4977082;28;20117;-64
2021/08/05 06:14:29;;;;;;;3.92;3.58;;;17.10;83.40;;;;;;4977967;28;20045;-64
2021/08/05 06:16:55;;;;;;;4.32;3.15;;;17.10;83.40;;;;;;4972050;28;20514;-66
2021/08/05 06:19:20;;;;;;;3.97;3.67;;;17.10;83.30;;;;;;4972394;28;20042;-65
2021/08/05 06:21:46;;;;;;;4.30;3.88;;;17.10;83.30;;;;;;4972295;28;20062;-65
2021/08/05 06:24:12;;;;;;;4.30;3.97;;;17.20;83.20;;;;;;4973857;28;20038;-64
2021/08/05 06:26:41;;;;;;;4.15;3.40;;;17.20;83.00;;;;;;4994246;28;20501;-65
2021/08/05 06:29:08;;;;;;;3.45;3.15;;;17.20;82.90;;;;;;4997422;28;20177;-64
2021/08/05 06:31:35;;;;;;;3.63;3.33;;;17.30;82.70;;;;;;4979147;28;20037;-64
2021/08/05 06:34:05;;;;;;;4.45;3.58;;;17.30;82.70;;;;;;4983940;28;20034;-65
2021/08/05 06:36:31;;;;;;;4.55;3.92;;;17.30;82.70;;;;;;4980558;28;20042;-64
2021/08/05 06:38:57;;;;;;;4.80;3.80;;;17.40;82.70;;;;;;4980884;28;21911;-64
2021/08/05 06:41:23;;;;;;;3.92;3.63;;;17.40;82.70;;;;;;4981969;28;20043;-65
2021/08/05 06:43:48;;;;;;;4.25;3.85;;;17.40;82.60;;;;;;4981557;28;20117;-65
2021/08/05 06:46:14;;;;;;;3.70;3.40;;;17.50;82.70;;;;;;4983295;28;20058;-64
2021/08/05 06:48:40;;;;;;;5.70;3.70;;;17.50;82.60;;;;;;4981749;28;20045;-64
2021/08/05 06:51:07;;;;;;;5.50;3.80;;;17.50;82.70;;;;;;4990385;28;20039;-65
2021/08/05 06:53:32;;;;;;;6.05;4.00;;;17.60;82.70;;;;;;4977944;28;20518;-64
2021/08/05 06:55:58;;;;;;;3.92;3.40;;;17.60;82.80;;;;;;4982758;28;20065;-64
2021/08/05 06:58:24;;;;;;;5.63;4.15;;;17.70;82.80;;;;;;4998204;28;20046;-65
2021/08/05 07:00:50;;;;;;;4.57;4.13;;;17.70;82.60;;;;;;4981065;28;20038;-65
2021/08/05 07:03:16;;;;;;;4.00;3.65;;;17.80;82.70;;;;;;4969982;28;20043;-65
2021/08/05 07:05:41;;;;;;;3.40;3.10;;;17.80;82.70;;;;;;4981423;28;20402;-65
2021/08/05 07:08:07;;;;;;;5.07;4.22;;;17.90;82.90;;;;;;4984139;28;20112;-65
2021/08/05 07:10:33;;;;;;;5.28;4.05;;;17.90;82.60;;;;;;4974956;28;20133;-65
2021/08/05 07:12:58;;;;;;;4.55;3.38;;;18.00;82.70;;;;;;4983842;28;20137;-65
2021/08/05 07:15:24;;;;;;;3.92;3.50;;;18.00;82.70;;;;;;4977243;28;20647;-65
2021/08/05 07:17:50;;;;;;;4.07;3.63;;;18.10;82.50;;;;;;4989641;28;20393;-65
2021/08/05 07:20:17;;;;;;;4.53;3.42;;;18.10;82.30;;;;;;4953074;28;20518;-65
2021/08/05 07:22:44;;;;;;;6.07;3.85;;;18.20;82.30;;;;;;4957664;28;20035;-66
2021/08/05 07:25:11;;;;;;;4.38;3.78;;;18.30;82.50;;;;;;4953763;28;20138;-64
2021/08/05 07:27:39;;;;;;;4.43;3.25;;;18.30;82.70;;;;;;4961820;28;20578;-64
2021/08/05 07:30:07;;;;;;;4.43;3.75;;;18.40;82.70;;;;;;4954999;28;20134;-65
2021/08/05 07:32:33;;;;;;;6.50;3.22;;;18.50;82.40;;;;;;4969118;28;20603;-65
2021/08/05 07:34:58;;;;;;;4.95;3.35;;;18.60;82.50;;;;;;4955467;28;20558;-64
2021/08/05 07:37:25;;;;;;;5.00;2.92;;;18.60;82.60;;;;;;4956574;28;20162;-66
2021/08/05 07:39:51;;;;;;;3.60;2.83;;;18.70;82.00;;;;;;4956627;28;20035;-65
2021/08/05 07:42:18;;;;;;;2.97;2.65;;;18.90;81.90;;;;;;4960206;28;20561;-65
2021/08/05 07:44:44;;;;;;;2.90;2.35;;;18.90;81.70;;;;;;4956741;28;20142;-64
2021/08/05 07:47:10;;;;;;;2.72;2.50;;;19.00;81.50;;;;;;4955814;28;20714;-65
2021/08/05 07:49:36;;;;;;;2.95;1.88;;;19.10;80.50;;;;;;4955329;28;20969;-65
2021/08/05 07:52:02;;;;;;;2.67;2.00;;;19.20;79.80;;;;;;4955709;28;20161;-63
2021/08/05 07:54:27;;;;;;;2.83;2.30;;;19.20;79.40;;;;;;4954235;28;20582;-65
2021/08/05 07:56:53;;;;;;;2.63;2.25;;;19.20;78.40;;;;;;4953703;28;20042;-64
2021/08/05 07:59:18;;;;;;;2.50;2.30;;;19.30;78.00;;;;;;4964608;28;20058;-65
2021/08/05 08:01:44;;;;;;;2.45;2.13;;;19.30;77.70;;;;;;4950603;28;20055;-65
2021/08/05 08:04:10;;;;;;;2.40;1.60;;;19.30;77.90;;;;;;4953034;28;20038;-65
2021/08/05 08:06:35;;;;;;;2.03;1.80;;;19.40;77.60;;;;;;4952766;28;22296;-65
2021/08/05 08:09:02;;;;;;;3.58;1.45;;;19.40;77.50;;;;;;4952527;28;20844;-64
2021/08/05 08:11:27;;;;;;;2.33;1.40;;;19.40;77.00;;;;;;4970983;28;20234;-65
2021/08/05 08:13:53;;;;;;;1.48;1.30;;;19.40;76.60;;;;;;4962100;28;20250;-65
2021/08/05 08:16:21;;;;;;;2.70;1.75;;;19.40;76.70;;;;;;4953760;28;20035;-65
2021/08/05 08:18:47;;;;;;;1.63;1.52;;;19.50;76.60;;;;;;4954680;28;20804;-64
2021/08/05 08:21:14;;;;;;;1.40;1.30;;;19.50;76.60;;;;;;4952280;28;20226;-64
2021/08/05 08:23:39;;;;;;;2.90;2.10;;;19.60;76.50;;;;;;4955264;28;20433;-65
2021/08/05 08:26:06;;;;;;;2.70;1.58;;;19.60;76.20;;;;;;4952832;28;20035;-65
2021/08/05 08:28:32;;;;;;;1.60;1.50;;;19.70;76.50;;;;;;4957149;28;20030;-65
2021/08/05 08:30:57;;;;;;;2.08;1.67;;;19.70;76.30;;;;;;4978238;28;20618;-64
2021/08/05 08:33:23;;;;;;;2.00;1.80;;;19.80;76.00;;;;;;4974997;28;20083;-65
2021/08/05 08:35:49;;;;;;;3.03;1.80;;;19.80;75.70;;;;;;4982813;28;20447;-65
2021/08/05 08:38:14;;;;;;;1.63;1.52;;;19.80;75.30;;;;;;4983700;28;20038;-66
2021/08/05 08:40:40;;;;;;;1.60;1.50;;;19.80;75.20;;;;;;4981850;28;20042;-65
2021/08/05 08:43:06;;;;;;;1.50;1.40;;;19.90;75.70;;;;;;4979497;28;20033;-65
2021/08/05 08:45:32;;;;;;;2.40;1.33;;;19.90;76.60;;;;;;4999023;28;20030;-65
2021/08/05 08:47:59;;;;;;;2.38;1.38;;;19.90;75.80;;;;;;4984597;28;20035;-66
2021/08/05 08:50:27;;;;;;;1.83;1.30;;;20.00;75.30;;;;;;4991912;28;20038;-66
2021/08/05 08:53:01;;;;;;;1.30;1.20;;;20.10;75.40;;;;;;4982008;28;20086;-65
2021/08/05 08:55:27;;;;;;;1.33;1.20;;;20.10;74.40;;;;;;4980922;28;20042;-66
2021/08/05 08:57:57;;;;;;;1.45;1.35;;;20.20;74.40;;;;;;4982723;28;20292;-66
2021/08/05 09:00:23;;;;;;;1.50;1.40;;;20.30;74.40;;;;;;4983111;28;20079;-64
2021/08/05 09:02:48;;;;;;;5.03;1.60;;;20.40;74.00;;;;;;4981614;28;20039;-65
2021/08/05 09:05:14;;;;;;;1.58;1.38;;;20.40;73.60;;;;;;4985507;28;20421;-65
2021/08/05 09:07:42;;;;;;;2.90;1.58;;;20.50;72.50;;;;;;4983109;28;20515;-66
2021/08/05 09:10:09;;;;;;;1.60;1.50;;;20.50;72.60;;;;;;4993179;28;20106;-65
2021/08/05 09:12:34;;;;;;;2.53;1.40;;;20.60;72.80;;;;;;4974279;28;20108;-65
2021/08/05 09:15:00;;;;;;;1.50;1.40;;;20.60;72.50;;;;;;4982267;28;20035;-65
2021/08/05 09:17:33;;;;;;;1.92;1.30;;;20.60;72.10;;;;;;4980679;28;20080;-65
2021/08/05 09:20:01;;;;;;;1.70;1.60;;;20.70;72.30;;;;;;4994020;28;20565;-65
2021/08/05 09:22:38;;;;;;;1.30;1.20;;;20.70;72.10;;;;;;4985214;28;20073;-65
2021/08/05 09:25:22;;;;;;;2.03;1.55;;;20.70;71.80;;;;;;4991971;28;20053;-65
2021/08/05 09:27:49;;;;;;;1.67;1.20;;;20.80;70.90;;;;;;4983777;28;20070;-66
2021/08/05 09:30:36;;;;;;;1.55;1.27;;;20.80;71.80;;;;;;4991721;28;20026;-65
2021/08/05 09:33:06;;;;;;;2.67;1.17;;;20.80;70.70;;;;;;4984764;28;20033;-65
2021/08/05 09:35:32;;;;;;;2.75;1.30;;;20.80;70.60;;;;;;4984416;28;20030;-66
2021/08/05 09:38:20;;;;;;;2.78;1.00;;;20.80;71.00;;;;;;4983050;28;20037;-66
2021/08/05 09:40:51;;;;;;;0.95;0.85;;;20.80;70.00;;;;;;4981835;28;20468;-65
2021/08/05 09:43:27;;;;;;;1.15;1.05;;;20.90;71.40;;;;;;4975631;28;20101;-66
2021/08/05 09:45:53;;;;;;;4.00;1.25;;;20.90;72.00;;;;;;4985049;28;20146;-66
2021/08/05 09:48:38;;;;;;;1.92;1.45;;;21.00;71.70;;;;;;4986275;28;20118;-65
2021/08/05 09:51:10;;;;;;;1.58;1.30;;;21.00;70.60;;;;;;4986828;28;20053;-66
2021/08/05 09:53:55;;;;;;;2.05;1.20;;;21.00;71.10;;;;;;4983167;28;20034;-66
2021/08/05 09:56:20;;;;;;;1.55;1.30;;;21.10;70.00;;;;;;4988419;28;20049;-65
2021/08/05 09:58:48;;;;;;;2.55;1.00;;;21.10;71.20;;;;;;4982730;28;20072;-66
2021/08/05 10:01:14;;;;;;;1.63;1.10;;;21.10;71.00;;;;;;4985050;28;20038;-66
2021/08/05 10:03:39;;;;;;;2.55;0.98;;;21.20;70.50;;;;;;4987215;28;20034;-66
2021/08/05 10:06:07;;;;;;;1.02;0.93;;;21.30;70.90;;;;;;4987472;28;20034;-65
2021/08/05 10:08:38;;;;;;;1.02;0.93;;;21.40;70.60;;;;;;5000313;28;20037;-65
2021/08/05 10:11:04;;;;;;;1.45;0.90;;;21.50;69.90;;;;;;4982739;28;20030;-65
2021/08/05 10:13:34;;;;;;;1.02;1.00;;;21.50;69.40;;;;;;4971084;28;20460;-65
2021/08/05 10:16:00;;;;;;;1.63;1.10;;;21.60;68.80;;;;;;4967221;28;20050;-65
2021/08/05 10:18:29;;;;;;;0.80;0.77;;;21.60;69.20;;;;;;4986392;28;20359;-65
2021/08/05 10:20:57;;;;;;;2.25;1.00;;;21.60;68.50;;;;;;4974322;28;20058;-66
2021/08/05 10:23:25;;;;;;;4.28;1.17;;;21.60;69.00;;;;;;4970279;28;20035;-65
2021/08/05 10:25:57;;;;;;;1.05;1.00;;;21.60;68.70;;;;;;4972077;28;20109;-66
2021/08/05 10:28:23;;;;;;;3.70;1.00;;;21.60;68.30;;;;;;4970338;28;20038;-66
2021/08/05 10:30:51;;;;;;;1.73;0.93;;;21.60;68.60;;;;;;4971191;28;20531;-65
2021/08/05 10:33:17;;;;;;;7.35;1.02;;;21.60;68.60;;;;;;4986767;28;20101;-65
2021/08/05 10:35:47;;;;;;;2.55;0.85;;;21.60;68.50;;;;;;4984418;28;20446;-66
2021/08/05 10:38:17;;;;;;;0.90;0.80;;;21.60;68.10;;;;;;4987960;28;20026;-66
2021/08/05 10:40:44;;;;;;;1.08;0.98;;;21.60;69.10;;;;;;5000787;28;20108;-65
2021/08/05 10:43:11;;;;;;;1.02;0.93;;;21.70;68.60;;;;;;4984662;28;20417;-66
2021/08/05 10:45:37;;;;;;;0.95;0.90;;;21.70;68.60;;;;;;4982019;28;20188;-66
2021/08/05 10:48:05;;;;;;;0.93;0.90;;;21.80;68.50;;;;;;4981699;28;20568;-65
2021/08/05 10:50:37;;;;;;;3.08;1.00;;;21.80;67.60;;;;;;4985648;28;20070;-65
2021/08/05 10:53:02;;;;;;;0.80;0.80;;;21.90;68.40;;;;;;4985239;28;20054;-66
2021/08/05 10:55:34;;;;;;;1.83;0.70;;;22.00;67.90;;;;;;4987845;28;20719;-66
2021/08/05 10:58:08;;;;;;;1.27;0.90;;;22.10;67.70;;;;;;5002818;28;20386;-66
2021/08/05 11:01:02;;;;;;;0.70;0.70;;;22.10;66.80;;;;;;4986967;28;20651;-66
2021/08/05 11:03:35;;;;;;;1.17;0.80;;;22.20;66.00;;;;;;4980313;28;20086;-65
2021/08/05 11:06:05;;;;;;;1.67;0.90;;;22.30;66.30;;;;;;4984836;28;20037;-66
2021/08/05 11:08:31;;;;;;;0.70;0.70;;;22.40;65.70;;;;;;4996169;28;20058;-66
2021/08/05 11:11:25;;;;;;;1.15;0.63;;;22.40;64.40;;;;;;4995238;28;20066;-65
2021/08/05 11:14:00;;;;;;;0.60;0.60;;;22.50;63.80;;;;;;4986450;28;20084;-66
2021/08/05 11:16:50;;;;;;;0.90;0.80;;;22.50;64.90;;;;;;4992828;28;20039;-66
2021/08/05 11:19:23;;;;;;;2.45;0.85;;;22.60;64.20;;;;;;4994543;28;20566;-65
2021/08/05 11:21:49;;;;;;;1.77;0.80;;;22.60;64.20;;;;;;4984489;28;20406;-65
2021/08/05 11:24:43;;;;;;;1.10;0.98;;;22.70;65.20;;;;;;4985947;28;20041;-66
2021/08/05 11:27:17;;;;;;;2.15;0.80;;;22.70;64.50;;;;;;4980595;28;20130;-66
2021/08/05 11:29:43;;;;;;;1.27;0.90;;;22.70;66.40;;;;;;4985238;28;20507;-66
2021/08/05 11:32:24;;;;;;;0.95;0.80;;;22.80;65.40;;;;;;4986039;28;20136;-66
2021/08/05 11:35:01;;;;;;;0.93;0.60;;;22.80;65.00;;;;;;4985466;28;20080;-66
2021/08/05 11:37:27;;;;;;;1.05;0.70;;;22.90;64.40;;;;;;4982301;28;20039;-66
2021/08/05 11:39:58;;;;;;;1.00;0.70;;;22.90;64.50;;;;;;4985783;28;20046;-66
2021/08/05 11:42:25;;;;;;;1.13;0.80;;;22.90;63.00;;;;;;4984805;28;20053;-65
2021/08/05 11:44:56;;;;;;;1.92;0.60;;;23.00;63.80;;;;;;4982494;28;20038;-66
2021/08/05 11:47:42;;;;;;;1.30;0.90;;;22.90;63.60;;;;;;4980546;28;20049;-65
2021/08/05 11:50:18;;;;;;;0.85;0.60;;;23.00;62.70;;;;;;4980032;28;20109;-66
2021/08/05 11:52:48;;;;;;;1.15;0.70;;;23.00;64.60;;;;;;4986770;28;20109;-67
2021/08/05 11:55:20;;;;;;;0.77;0.60;;;23.10;63.70;;;;;;4986279;28;20047;-66
2021/08/05 11:57:48;;;;;;;0.63;0.52;;;23.10;63.40;;;;;;4987790;28;20035;-66
2021/08/05 12:00:16;;;;;;;0.63;0.63;;;23.10;62.40;;;;;;4985841;28;20505;-66
2021/08/05 12:02:43;;;;;;;0.80;0.80;;;23.10;61.90;;;;;;4980860;28;20122;-65
2021/08/05 12:05:09;;;;;;;0.70;0.70;;;23.10;61.80;;;;;;4989755;28;20047;-66
2021/08/05 12:07:38;;;;;;;0.68;0.65;;;23.10;62.00;;;;;;4985625;28;20038;-66
2021/08/05 12:10:13;;;;;;;1.08;0.70;;;23.10;61.80;;;;;;4983245;28;20030;-66
2021/08/05 12:12:46;;;;;;;0.55;0.55;;;23.20;61.80;;;;;;4983392;28;20035;-66
2021/08/05 12:15:15;;;;;;;0.70;0.70;;;23.20;61.70;;;;;;4999919;28;20030;-65
2021/08/05 12:17:47;;;;;;;0.70;0.70;;;23.20;63.10;;;;;;4986474;28;20042;-66
2021/08/05 12:20:14;;;;;;;0.60;0.50;;;23.20;61.90;;;;;;4978680;28;20029;-66
2021/08/05 12:22:43;;;;;;;0.70;0.50;;;23.20;61.90;;;;;;4985624;28;20036;-65
2021/08/05 12:25:25;;;;;;;0.60;0.60;;;23.30;61.20;;;;;;4983465;28;20054;-66
2021/08/05 12:28:07;;;;;;;0.80;0.80;;;23.40;61.20;;;;;;4976487;28;20062;-66
2021/08/05 12:30:37;;;;;;;0.75;0.60;;;23.40;60.90;;;;;;4979377;28;20505;-65
2021/08/05 12:33:13;;;;;;;3.20;0.50;;;23.40;60.80;;;;;;4980490;28;20136;-65
2021/08/05 12:35:40;;;;;;;0.73;0.50;;;23.50;61.10;;;;;;4979454;28;20394;-66
2021/08/05 12:38:11;;;;;;;0.90;0.63;;;23.60;60.10;;;;;;4987570;28;20574;-65
2021/08/05 12:40:41;;;;;;;1.95;0.65;;;23.60;59.00;;;;;;4980687;28;20037;-65
2021/08/05 12:43:09;;;;;;;0.60;0.55;;;23.70;59.20;;;;;;4984663;28;20042;-66
2021/08/05 12:45:38;;;;;;;0.98;0.60;;;23.70;58.70;;;;;;4981785;28;20030;-65
2021/08/05 12:48:04;;;;;;;2.55;0.70;;;23.80;58.60;;;;;;4980272;28;20034;-66
2021/08/05 12:50:35;;;;;;;0.95;0.45;;;23.70;58.20;;;;;;4980850;28;20563;-66